sensor_id;sensor_type;location;lat;lon;timestamp;pressure;altitude;pressure_sealevel;temperature;humidity
17764;BME280;22245;52.832;13.816;2023-05-23T00:02:10;101107.41;;;16.16;62.38
17764;BME280;22245;52.832;13.816;2023-05-23T00:05:34;101104.19;;;16.13;62.03
17764;BME280;22245;52.832;13.816;2023-05-23T00:08:56;101102.66;;;16.10;62.62
17764;BME280;22245;52.832;13.816;2023-05-23T00:12:17;101103.13;;;16.05;62.58
17764;BME280;22245;52.832;13.816;2023-05-23T00:15:41;101104.47;;;16.01;62.64
17764;BME280;22245;52.832;13.816;2023-05-23T00:19:03;101095.84;;;15.98;62.71
17764;BME280;22245;52.832;13.816;2023-05-23T00:22:24;101091.66;;;15.95;62.82
17764;BME280;22245;52.832;13.816;2023-05-23T00:25:46;101086.59;;;15.92;63.18
17764;BME280;22245;52.832;13.816;2023-05-23T00:29:12;101085.06;;;15.89;62.95
17764;BME280;22245;52.832;13.816;2023-05-23T00:32:37;101078.97;;;15.87;62.85
17764;BME280;22245;52.832;13.816;2023-05-23T00:35:59;101083.00;;;15.83;63.13
17764;BME280;22245;52.832;13.816;2023-05-23T00:39:20;101077.94;;;15.80;63.15
17764;BME280;22245;52.832;13.816;2023-05-23T00:42:42;101077.38;;;15.76;63.03
17764;BME280;22245;52.832;13.816;2023-05-23T00:46:04;101072.03;;;15.76;62.61
17764;BME280;22245;52.832;13.816;2023-05-23T00:49:28;101081.94;;;15.76;62.85
17764;BME280;22245;52.832;13.816;2023-05-23T00:52:50;101079.38;;;15.74;62.87
17764;BME280;22245;52.832;13.816;2023-05-23T00:56:11;101074.19;;;15.73;61.66
17764;BME280;22245;52.832;13.816;2023-05-23T00:59:34;101082.41;;;15.71;60.80
17764;BME280;22245;52.832;13.816;2023-05-23T01:02:57;101081.53;;;15.71;60.60
17764;BME280;22245;52.832;13.816;2023-05-23T01:06:20;101077.16;;;15.70;60.37
17764;BME280;22245;52.832;13.816;2023-05-23T01:09:42;101073.66;;;15.69;60.58
17764;BME280;22245;52.832;13.816;2023-05-23T01:13:12;101072.97;;;15.67;61.15
17764;BME280;22245;52.832;13.816;2023-05-23T01:16:43;101068.91;;;15.63;61.27
17764;BME280;22245;52.832;13.816;2023-05-23T01:20:10;101071.06;;;15.59;61.85
17764;BME280;22245;52.832;13.816;2023-05-23T01:23:45;101065.19;;;15.56;62.46
17764;BME280;22245;52.832;13.816;2023-05-23T01:27:21;101059.25;;;15.52;62.75
17764;BME280;22245;52.832;13.816;2023-05-23T01:30:45;101058.56;;;15.50;62.07
17764;BME280;22245;52.832;13.816;2023-05-23T01:34:09;101056.34;;;15.45;62.68
17764;BME280;22245;52.832;13.816;2023-05-23T01:37:30;101049.28;;;15.44;62.31
17764;BME280;22245;52.832;13.816;2023-05-23T01:40:52;101039.72;;;15.42;62.58
17764;BME280;22245;52.832;13.816;2023-05-23T01:44:14;101045.25;;;15.40;62.51
17764;BME280;22245;52.832;13.816;2023-05-23T01:47:41;101047.25;;;15.38;61.76
17764;BME280;22245;52.832;13.816;2023-05-23T01:51:04;101042.88;;;15.37;62.04
17764;BME280;22245;52.832;13.816;2023-05-23T01:54:26;101033.00;;;15.38;61.51
17764;BME280;22245;52.832;13.816;2023-05-23T01:57:50;101032.81;;;15.39;62.07
17764;BME280;22245;52.832;13.816;2023-05-23T02:01:12;101030.81;;;15.41;61.21
17764;BME280;22245;52.832;13.816;2023-05-23T02:04:35;101022.63;;;15.43;61.45
17764;BME280;22245;52.832;13.816;2023-05-23T02:07:57;101029.38;;;15.47;60.69
17764;BME280;22245;52.832;13.816;2023-05-23T02:11:19;101017.63;;;15.48;61.03
17764;BME280;22245;52.832;13.816;2023-05-23T02:14:42;101018.47;;;15.48;61.15
17764;BME280;22245;52.832;13.816;2023-05-23T02:18:04;101020.31;;;15.48;61.34
17764;BME280;22245;52.832;13.816;2023-05-23T02:21:27;101024.81;;;15.47;61.10
17764;BME280;22245;52.832;13.816;2023-05-23T02:24:49;101014.09;;;15.47;61.02
17764;BME280;22245;52.832;13.816;2023-05-23T02:28:10;101021.13;;;15.48;60.16
17764;BME280;22245;52.832;13.816;2023-05-23T02:31:33;101024.50;;;15.51;60.14
17764;BME280;22245;52.832;13.816;2023-05-23T02:34:55;101020.00;;;15.51;60.22
17764;BME280;22245;52.832;13.816;2023-05-23T02:38:19;101016.31;;;15.52;59.67
17764;BME280;22245;52.832;13.816;2023-05-23T02:41:41;101023.06;;;15.56;60.11
17764;BME280;22245;52.832;13.816;2023-05-23T02:45:03;101019.38;;;15.57;59.45
17764;BME280;22245;52.832;13.816;2023-05-23T02:48:25;101010.16;;;15.60;59.73
17764;BME280;22245;52.832;13.816;2023-05-23T02:51:47;101015.38;;;15.61;60.32
17764;BME280;22245;52.832;13.816;2023-05-23T02:55:10;101010.00;;;15.61;60.24
17764;BME280;22245;52.832;13.816;2023-05-23T02:58:35;101009.84;;;15.63;60.12
17764;BME280;22245;52.832;13.816;2023-05-23T03:01:57;101003.47;;;15.64;60.01
17764;BME280;22245;52.832;13.816;2023-05-23T03:05:19;101005.31;;;15.63;59.70
17764;BME280;22245;52.832;13.816;2023-05-23T03:08:41;100998.94;;;15.65;60.12
17764;BME280;22245;52.832;13.816;2023-05-23T03:12:05;101000.78;;;15.64;60.44
17764;BME280;22245;52.832;13.816;2023-05-23T03:15:27;100997.94;;;15.66;59.98
17764;BME280;22245;52.832;13.816;2023-05-23T03:18:49;101011.34;;;15.66;59.53
17764;BME280;22245;52.832;13.816;2023-05-23T03:22:10;101007.69;;;15.67;60.01
17764;BME280;22245;52.832;13.816;2023-05-23T03:25:32;101011.91;;;15.69;60.44
17764;BME280;22245;52.832;13.816;2023-05-23T03:28:55;101004.53;;;15.71;60.38
17764;BME280;22245;52.832;13.816;2023-05-23T03:32:17;100994.78;;;15.70;60.06
17764;BME280;22245;52.832;13.816;2023-05-23T03:35:39;101003.66;;;15.71;60.32
17764;BME280;22245;52.832;13.816;2023-05-23T03:39:01;101008.88;;;15.72;60.02
17764;BME280;22245;52.832;13.816;2023-05-23T03:42:23;100999.84;;;15.73;59.41
17764;BME280;22245;52.832;13.816;2023-05-23T03:45:47;101005.75;;;15.77;59.41
17764;BME280;22245;52.832;13.816;2023-05-23T03:49:09;100995.69;;;15.79;59.54
17764;BME280;22245;52.832;13.816;2023-05-23T03:52:31;100994.69;;;15.80;59.54
17764;BME280;22245;52.832;13.816;2023-05-23T03:55:53;100992.50;;;15.84;59.68
17764;BME280;22245;52.832;13.816;2023-05-23T03:59:14;100987.81;;;15.86;60.16
17764;BME280;22245;52.832;13.816;2023-05-23T04:02:38;100999.25;;;15.88;59.70
17764;BME280;22245;52.832;13.816;2023-05-23T04:06:00;100997.25;;;15.90;59.68
17764;BME280;22245;52.832;13.816;2023-05-23T04:09:23;100999.94;;;15.90;59.99
17764;BME280;22245;52.832;13.816;2023-05-23T04:12:46;101007.03;;;15.91;59.94
17764;BME280;22245;52.832;13.816;2023-05-23T04:16:10;100997.97;;;15.92;60.66
17764;BME280;22245;52.832;13.816;2023-05-23T04:19:35;100994.56;;;15.90;60.30
17764;BME280;22245;52.832;13.816;2023-05-23T04:22:58;100986.50;;;15.90;60.24
17764;BME280;22245;52.832;13.816;2023-05-23T04:26:22;100986.50;;;15.90;60.75
17764;BME280;22245;52.832;13.816;2023-05-23T04:29:45;100989.06;;;15.91;61.17
17764;BME280;22245;52.832;13.816;2023-05-23T04:33:07;100979.84;;;15.94;60.39
17764;BME280;22245;52.832;13.816;2023-05-23T04:36:31;100986.59;;;15.98;60.75
17764;BME280;22245;52.832;13.816;2023-05-23T04:39:52;100982.88;;;15.99;60.81
17764;BME280;22245;52.832;13.816;2023-05-23T04:43:33;100983.56;;;16.01;60.67
17764;BME280;22245;52.832;13.816;2023-05-23T04:47:19;100969.28;;;16.01;60.45
17764;BME280;22245;52.832;13.816;2023-05-23T04:50:47;100961.91;;;16.03;60.19
17764;BME280;22245;52.832;13.816;2023-05-23T04:54:12;100956.38;;;16.04;60.62
17764;BME280;22245;52.832;13.816;2023-05-23T04:57:33;100958.75;;;16.08;60.69
17764;BME280;22245;52.832;13.816;2023-05-23T05:00:56;100950.34;;;16.11;60.22
17764;BME280;22245;52.832;13.816;2023-05-23T05:04:18;100955.41;;;16.14;61.11
17764;BME280;22245;52.832;13.816;2023-05-23T05:07:40;100956.94;;;16.16;61.45
17764;BME280;22245;52.832;13.816;2023-05-23T05:11:04;100953.25;;;16.17;61.23
17764;BME280;22245;52.832;13.816;2023-05-23T05:14:26;100958.44;;;16.19;61.82
17764;BME280;22245;52.832;13.816;2023-05-23T05:17:47;100960.13;;;16.20;62.14
17764;BME280;22245;52.832;13.816;2023-05-23T05:21:12;100958.28;;;16.20;61.93
17764;BME280;22245;52.832;13.816;2023-05-23T05:24:33;100954.41;;;16.23;61.19
17764;BME280;22245;52.832;13.816;2023-05-23T05:27:56;100955.94;;;16.26;62.58
17764;BME280;22245;52.832;13.816;2023-05-23T05:31:19;100956.63;;;16.28;61.31
17764;BME280;22245;52.832;13.816;2023-05-23T05:34:41;100956.47;;;16.29;60.52
17764;BME280;22245;52.832;13.816;2023-05-23T05:38:06;100962.34;;;16.33;60.88
17764;BME280;22245;52.832;13.816;2023-05-23T05:41:27;100960.66;;;16.32;60.92
17764;BME280;22245;52.832;13.816;2023-05-23T05:44:51;100964.22;;;16.32;61.18
17764;BME280;22245;52.832;13.816;2023-05-23T05:48:13;100959.84;;;16.31;60.66
17764;BME280;22245;52.832;13.816;2023-05-23T05:51:36;100958.84;;;16.32;60.69
17764;BME280;22245;52.832;13.816;2023-05-23T05:54:58;100968.56;;;16.33;60.98
17764;BME280;22245;52.832;13.816;2023-05-23T05:58:19;100970.25;;;16.34;61.52
17764;BME280;22245;52.832;13.816;2023-05-23T06:01:50;100960.19;;;16.37;61.45
17764;BME280;22245;52.832;13.816;2023-05-23T06:05:12;100959.84;;;16.40;60.84
17764;BME280;22245;52.832;13.816;2023-05-23T06:08:35;100965.56;;;16.45;60.87
17764;BME280;22245;52.832;13.816;2023-05-23T06:11:58;100954.16;;;16.51;60.46
17764;BME280;22245;52.832;13.816;2023-05-23T06:15:20;100959.88;;;16.56;59.95
17764;BME280;22245;52.832;13.816;2023-05-23T06:18:44;100946.97;;;16.60;60.33
17764;BME280;22245;52.832;13.816;2023-05-23T06:22:05;100942.75;;;16.66;60.77
17764;BME280;22245;52.832;13.816;2023-05-23T06:25:27;100944.94;;;16.70;60.13
17764;BME280;22245;52.832;13.816;2023-05-23T06:28:49;100943.94;;;16.71;58.90
17764;BME280;22245;52.832;13.816;2023-05-23T06:32:11;100946.81;;;16.78;58.80
17764;BME280;22245;52.832;13.816;2023-05-23T06:35:34;100947.97;;;16.84;58.86
17764;BME280;22245;52.832;13.816;2023-05-23T06:38:55;100941.94;;;16.90;58.25
17764;BME280;22245;52.832;13.816;2023-05-23T06:42:17;100947.81;;;16.93;57.32
17764;BME280;22245;52.832;13.816;2023-05-23T06:45:49;100944.47;;;17.00;57.27
17764;BME280;22245;52.832;13.816;2023-05-23T06:49:10;100942.13;;;17.05;56.81
17764;BME280;22245;52.832;13.816;2023-05-23T06:52:37;100954.91;;;17.11;56.95
17764;BME280;22245;52.832;13.816;2023-05-23T06:56:02;100960.44;;;17.18;57.20
17764;BME280;22245;52.832;13.816;2023-05-23T06:59:27;100954.56;;;17.23;56.89
17764;BME280;22245;52.832;13.816;2023-05-23T07:02:49;100956.75;;;17.27;57.41
17764;BME280;22245;52.832;13.816;2023-05-23T07:06:13;100956.22;;;17.32;56.76
17764;BME280;22245;52.832;13.816;2023-05-23T07:09:36;100947.81;;;17.35;57.06
17764;BME280;22245;52.832;13.816;2023-05-23T07:13:03;100949.47;;;17.36;56.06
17764;BME280;22245;52.832;13.816;2023-05-23T07:16:25;100947.13;;;17.41;57.02
17764;BME280;22245;52.832;13.816;2023-05-23T07:19:53;100945.78;;;17.45;55.84
17764;BME280;22245;52.832;13.816;2023-05-23T07:23:16;100948.13;;;17.48;55.89
17764;BME280;22245;52.832;13.816;2023-05-23T07:26:40;100944.09;;;17.53;56.03
17764;BME280;22245;52.832;13.816;2023-05-23T07:30:02;100945.41;;;17.57;55.66
17764;BME280;22245;52.832;13.816;2023-05-23T07:33:26;100940.69;;;17.59;55.80
17764;BME280;22245;52.832;13.816;2023-05-23T07:36:56;100942.38;;;17.60;54.66
17764;BME280;22245;52.832;13.816;2023-05-23T07:40:23;100943.72;;;17.64;54.47
17764;BME280;22245;52.832;13.816;2023-05-23T07:43:46;100941.69;;;17.66;54.61
17764;BME280;22245;52.832;13.816;2023-05-23T07:47:08;100942.34;;;17.68;54.45
17764;BME280;22245;52.832;13.816;2023-05-23T07:50:29;100945.69;;;17.70;55.33
17764;BME280;22245;52.832;13.816;2023-05-23T07:53:52;100940.97;;;17.72;55.34
17764;BME280;22245;52.832;13.816;2023-05-23T07:57:16;100930.53;;;17.77;55.08
17764;BME280;22245;52.832;13.816;2023-05-23T08:00:39;100940.97;;;17.81;54.98
17764;BME280;22245;52.832;13.816;2023-05-23T08:04:12;100943.97;;;17.86;55.15
17764;BME280;22245;52.832;13.816;2023-05-23T08:07:40;100947.00;;;17.91;55.25
17764;BME280;22245;52.832;13.816;2023-05-23T08:11:03;100953.34;;;17.98;55.01
17764;BME280;22245;52.832;13.816;2023-05-23T08:14:33;100944.78;;;18.03;54.86
17764;BME280;22245;52.832;13.816;2023-05-23T08:18:21;100944.91;;;18.10;54.51
17764;BME280;22245;52.832;13.816;2023-05-23T08:21:44;100953.28;;;18.15;54.48
17764;BME280;22245;52.832;13.816;2023-05-23T08:25:06;100958.00;;;18.21;55.26
17764;BME280;22245;52.832;13.816;2023-05-23T08:28:30;100963.50;;;18.28;55.12
17764;BME280;22245;52.832;13.816;2023-05-23T08:31:56;100955.72;;;18.33;54.21
17764;BME280;22245;52.832;13.816;2023-05-23T08:35:20;100961.25;;;18.40;54.39
17764;BME280;22245;52.832;13.816;2023-05-23T08:38:42;100958.50;;;18.48;54.72
17764;BME280;22245;52.832;13.816;2023-05-23T08:42:10;100965.34;;;18.59;54.27
17764;BME280;22245;52.832;13.816;2023-05-23T08:45:32;100960.75;;;18.68;53.57
17764;BME280;22245;52.832;13.816;2023-05-23T08:48:55;100971.00;;;18.72;53.04
17764;BME280;22245;52.832;13.816;2023-05-23T08:52:24;100962.56;;;18.75;53.04
17764;BME280;22245;52.832;13.816;2023-05-23T08:55:51;100962.84;;;18.80;52.39
17764;BME280;22245;52.832;13.816;2023-05-23T08:59:19;100955.06;;;18.86;52.38
17764;BME280;22245;52.832;13.816;2023-05-23T09:02:43;100954.31;;;18.92;52.27
17764;BME280;22245;52.832;13.816;2023-05-23T09:06:30;100959.53;;;19.02;51.64
17764;BME280;22245;52.832;13.816;2023-05-23T09:09:54;100964.84;;;19.10;51.84
17764;BME280;22245;52.832;13.816;2023-05-23T09:13:16;100965.78;;;19.17;51.96
17764;BME280;22245;52.832;13.816;2023-05-23T09:16:45;100963.38;;;19.22;50.97
17764;BME280;22245;52.832;13.816;2023-05-23T09:20:10;100969.06;;;19.28;51.10
17764;BME280;22245;52.832;13.816;2023-05-23T09:23:40;100968.41;;;19.26;50.96
17764;BME280;22245;52.832;13.816;2023-05-23T09:27:05;100971.09;;;19.26;50.29
17764;BME280;22245;52.832;13.816;2023-05-23T09:30:28;100982.25;;;19.22;50.61
17764;BME280;22245;52.832;13.816;2023-05-23T09:33:54;100972.69;;;19.20;50.92
17764;BME280;22245;52.832;13.816;2023-05-23T09:37:16;100982.56;;;19.28;51.13
17764;BME280;22245;52.832;13.816;2023-05-23T09:40:44;100973.75;;;19.34;49.82
17764;BME280;22245;52.832;13.816;2023-05-23T09:44:08;100979.22;;;19.41;49.49
17764;BME280;22245;52.832;13.816;2023-05-23T09:47:30;100970.38;;;19.32;49.25
17764;BME280;22245;52.832;13.816;2023-05-23T09:50:51;100983.31;;;19.36;49.55
17764;BME280;22245;52.832;13.816;2023-05-23T09:54:13;100967.88;;;19.45;49.86
17764;BME280;22245;52.832;13.816;2023-05-23T09:57:39;100968.34;;;19.49;50.21
17764;BME280;22245;52.832;13.816;2023-05-23T10:01:05;100973.09;;;19.47;48.68
17764;BME280;22245;52.832;13.816;2023-05-23T10:04:30;100972.72;;;19.50;48.97
17764;BME280;22245;52.832;13.816;2023-05-23T10:07:52;100965.00;;;19.62;48.99
17764;BME280;22245;52.832;13.816;2023-05-23T10:15:09;100961.66;;;19.90;48.60
17764;BME280;22245;52.832;13.816;2023-05-23T10:18:38;100959.78;;;20.05;48.50
17764;BME280;22245;52.832;13.816;2023-05-23T10:22:06;100956.25;;;20.20;47.97
17764;BME280;22245;52.832;13.816;2023-05-23T10:25:29;100952.84;;;20.33;47.65
17764;BME280;22245;52.832;13.816;2023-05-23T10:28:51;100961.09;;;20.46;46.54
17764;BME280;22245;52.832;13.816;2023-05-23T10:32:14;100955.13;;;20.51;46.20
17764;BME280;22245;52.832;13.816;2023-05-23T10:35:49;100953.84;;;20.47;46.14
17764;BME280;22245;52.832;13.816;2023-05-23T10:39:19;100943.91;;;20.54;46.24
17764;BME280;22245;52.832;13.816;2023-05-23T10:42:57;100953.31;;;20.58;47.07
17764;BME280;22245;52.832;13.816;2023-05-23T10:46:20;100950.94;;;20.70;46.66
17764;BME280;22245;52.832;13.816;2023-05-23T10:49:43;100953.97;;;20.82;46.76
17764;BME280;22245;52.832;13.816;2023-05-23T10:53:08;100946.19;;;20.94;47.50
17764;BME280;22245;52.832;13.816;2023-05-23T10:56:30;100942.56;;;21.08;46.78
17764;BME280;22245;52.832;13.816;2023-05-23T10:59:52;100947.38;;;21.13;47.21
17764;BME280;22245;52.832;13.816;2023-05-23T11:03:15;100944.66;;;21.13;46.30
17764;BME280;22245;52.832;13.816;2023-05-23T11:06:39;100939.72;;;21.17;46.30
17764;BME280;22245;52.832;13.816;2023-05-23T11:10:07;100942.09;;;21.27;46.37
17764;BME280;22245;52.832;13.816;2023-05-23T11:13:53;100941.94;;;21.35;46.54
17764;BME280;22245;52.832;13.816;2023-05-23T11:17:16;100937.38;;;21.42;46.33
17764;BME280;22245;52.832;13.816;2023-05-23T11:20:39;100938.91;;;21.51;46.19
17764;BME280;22245;52.832;13.816;2023-05-23T11:24:02;100938.31;;;21.56;46.23
17764;BME280;22245;52.832;13.816;2023-05-23T11:27:30;100942.09;;;21.62;45.96
17764;BME280;22245;52.832;13.816;2023-05-23T11:30:56;100935.66;;;21.63;45.27
17764;BME280;22245;52.832;13.816;2023-05-23T11:34:17;100934.75;;;21.55;45.52
17764;BME280;22245;52.832;13.816;2023-05-23T11:37:39;100932.09;;;21.62;45.34
17764;BME280;22245;52.832;13.816;2023-05-23T11:41:01;100926.50;;;21.64;44.38
17764;BME280;22245;52.832;13.816;2023-05-23T11:44:25;100931.03;;;21.63;44.81
17764;BME280;22245;52.832;13.816;2023-05-23T11:47:46;100921.47;;;21.61;43.58
17764;BME280;22245;52.832;13.816;2023-05-23T11:51:08;100922.09;;;21.63;43.67
17764;BME280;22245;52.832;13.816;2023-05-23T11:54:30;100933.97;;;21.62;43.08
17764;BME280;22245;52.832;13.816;2023-05-23T11:57:55;100925.00;;;21.61;42.70
17764;BME280;22245;52.832;13.816;2023-05-23T12:01:18;100928.34;;;21.63;42.58
17764;BME280;22245;52.832;13.816;2023-05-23T12:04:40;100929.94;;;21.51;43.39
17764;BME280;22245;52.832;13.816;2023-05-23T12:08:02;100929.72;;;21.52;44.36
17764;BME280;22245;52.832;13.816;2023-05-23T12:11:24;100938.75;;;21.60;45.14
17764;BME280;22245;52.832;13.816;2023-05-23T12:14:46;100932.25;;;21.54;46.19
17764;BME280;22245;52.832;13.816;2023-05-23T12:18:10;100938.34;;;21.63;46.25
17764;BME280;22245;52.832;13.816;2023-05-23T12:21:43;100935.50;;;21.71;45.79
17764;BME280;22245;52.832;13.816;2023-05-23T12:25:07;100945.53;;;21.77;45.74
17764;BME280;22245;52.832;13.816;2023-05-23T12:28:36;100940.34;;;21.82;45.24
17764;BME280;22245;52.832;13.816;2023-05-23T12:31:58;100940.59;;;21.88;46.36
17764;BME280;22245;52.832;13.816;2023-05-23T12:35:24;100937.69;;;21.89;46.05
17764;BME280;22245;52.832;13.816;2023-05-23T12:38:46;100947.69;;;21.89;46.18
17764;BME280;22245;52.832;13.816;2023-05-23T12:42:08;100943.47;;;21.79;46.54
17764;BME280;22245;52.832;13.816;2023-05-23T12:45:31;100948.81;;;21.66;46.95
17764;BME280;22245;52.832;13.816;2023-05-23T12:48:54;100952.16;;;21.68;46.97
17764;BME280;22245;52.832;13.816;2023-05-23T12:52:18;100948.81;;;21.66;47.71
17764;BME280;22245;52.832;13.816;2023-05-23T12:55:40;100962.94;;;21.61;47.38
17764;BME280;22245;52.832;13.816;2023-05-23T12:59:02;100951.41;;;21.52;47.32
17764;BME280;22245;52.832;13.816;2023-05-23T13:02:24;100959.50;;;21.46;48.20
17764;BME280;22245;52.832;13.816;2023-05-23T13:05:46;100959.91;;;21.43;48.50
17764;BME280;22245;52.832;13.816;2023-05-23T13:09:10;100963.25;;;21.45;48.78
17764;BME280;22245;52.832;13.816;2023-05-23T13:12:32;100959.94;;;21.49;48.35
17764;BME280;22245;52.832;13.816;2023-05-23T13:15:54;100959.13;;;21.55;47.64
17764;BME280;22245;52.832;13.816;2023-05-23T13:19:16;100972.59;;;21.64;47.81
17764;BME280;22245;52.832;13.816;2023-05-23T13:22:39;100970.09;;;21.69;47.08
17764;BME280;22245;52.832;13.816;2023-05-23T13:26:03;100981.78;;;21.69;47.31
17764;BME280;22245;52.832;13.816;2023-05-23T13:29:25;100980.88;;;21.62;47.39
17764;BME280;22245;52.832;13.816;2023-05-23T13:32:47;100982.75;;;21.62;47.33
17764;BME280;22245;52.832;13.816;2023-05-23T13:36:11;100990.59;;;21.50;47.85
17764;BME280;22245;52.832;13.816;2023-05-23T13:39:32;100985.28;;;21.35;47.42
17764;BME280;22245;52.832;13.816;2023-05-23T13:42:55;100992.63;;;21.19;48.39
17764;BME280;22245;52.832;13.816;2023-05-23T13:46:17;100994.69;;;21.17;49.03
17764;BME280;22245;52.832;13.816;2023-05-23T13:49:39;100999.63;;;21.07;49.43
17764;BME280;22245;52.832;13.816;2023-05-23T13:53:01;100998.97;;;21.05;52.03
17764;BME280;22245;52.832;13.816;2023-05-23T13:56:23;101002.00;;;20.95;57.55
17764;BME280;22245;52.832;13.816;2023-05-23T13:59:46;101001.88;;;20.81;59.05
17764;BME280;22245;52.832;13.816;2023-05-23T14:03:08;101001.03;;;20.81;59.95
17764;BME280;22245;52.832;13.816;2023-05-23T14:06:30;101006.41;;;20.59;61.99
17764;BME280;22245;52.832;13.816;2023-05-23T14:09:53;101010.28;;;20.50;62.76
17764;BME280;22245;52.832;13.816;2023-05-23T14:13:15;101013.63;;;20.52;63.05
17764;BME280;22245;52.832;13.816;2023-05-23T14:16:38;101023.81;;;20.50;63.89
17764;BME280;22245;52.832;13.816;2023-05-23T14:20:00;101016.41;;;20.44;64.54
17764;BME280;22245;52.832;13.816;2023-05-23T14:23:23;101016.16;;;20.23;65.75
17764;BME280;22245;52.832;13.816;2023-05-23T14:26:44;101028.31;;;20.13;66.86
17764;BME280;22245;52.832;13.816;2023-05-23T14:30:07;101029.53;;;19.95;67.55
17764;BME280;22245;52.832;13.816;2023-05-23T14:33:31;101035.13;;;19.93;67.81
17764;BME280;22245;52.832;13.816;2023-05-23T14:36:54;101041.53;;;19.77;68.05
17764;BME280;22245;52.832;13.816;2023-05-23T14:40:15;101033.69;;;19.67;68.44
17764;BME280;22245;52.832;13.816;2023-05-23T14:43:37;101040.44;;;19.48;69.97
17764;BME280;22245;52.832;13.816;2023-05-23T14:46:59;101042.97;;;19.27;72.37
17764;BME280;22245;52.832;13.816;2023-05-23T14:50:24;101037.88;;;19.08;75.47
17764;BME280;22245;52.832;13.816;2023-05-23T14:53:46;101039.84;;;19.00;75.98
17764;BME280;22245;52.832;13.816;2023-05-23T14:57:08;101044.03;;;18.94;75.65
17764;BME280;22245;52.832;13.816;2023-05-23T15:00:29;101054.72;;;18.87;76.62
17764;BME280;22245;52.832;13.816;2023-05-23T15:03:51;101057.75;;;18.84;74.99
17764;BME280;22245;52.832;13.816;2023-05-23T15:07:15;101050.38;;;18.78;75.45
17764;BME280;22245;52.832;13.816;2023-05-23T15:10:37;101055.41;;;18.81;74.82
17764;BME280;22245;52.832;13.816;2023-05-23T15:13:59;101059.28;;;18.87;75.43
17764;BME280;22245;52.832;13.816;2023-05-23T15:17:20;101062.63;;;18.89;73.96
17764;BME280;22245;52.832;13.816;2023-05-23T15:20:45;101070.53;;;18.90;73.44
17764;BME280;22245;52.832;13.816;2023-05-23T15:24:09;101072.56;;;18.88;73.78
17764;BME280;22245;52.832;13.816;2023-05-23T15:27:30;101074.16;;;18.83;73.96
17764;BME280;22245;52.832;13.816;2023-05-23T15:30:52;101067.72;;;18.84;73.94
17764;BME280;22245;52.832;13.816;2023-05-23T15:34:16;101073.94;;;18.84;73.36
17764;BME280;22245;52.832;13.816;2023-05-23T15:37:38;101073.66;;;18.79;74.03
17764;BME280;22245;52.832;13.816;2023-05-23T15:41:02;101079.25;;;18.69;73.27
17764;BME280;22245;52.832;13.816;2023-05-23T15:44:25;101091.88;;;18.45;72.86
17764;BME280;22245;52.832;13.816;2023-05-23T15:47:47;101093.47;;;18.15;73.86
17764;BME280;22245;52.832;13.816;2023-05-23T15:51:09;101103.59;;;17.88;73.36
17764;BME280;22245;52.832;13.816;2023-05-23T15:54:31;101107.31;;;17.70;73.27
17764;BME280;22245;52.832;13.816;2023-05-23T15:57:55;101114.56;;;17.45;72.59
17764;BME280;22245;52.832;13.816;2023-05-23T16:01:16;101118.75;;;17.39;72.77
17764;BME280;22245;52.832;13.816;2023-05-23T16:04:38;101131.38;;;17.39;72.42
17764;BME280;22245;52.832;13.816;2023-05-23T16:08:00;101129.84;;;17.28;71.71
17764;BME280;22245;52.832;13.816;2023-05-23T16:11:22;101126.47;;;17.09;71.89
17764;BME280;22245;52.832;13.816;2023-05-23T16:14:45;101127.94;;;17.03;72.28
17764;BME280;22245;52.832;13.816;2023-05-23T16:18:07;101139.69;;;16.94;72.53
17764;BME280;22245;52.832;13.816;2023-05-23T16:21:28;101147.19;;;16.82;72.95
17764;BME280;22245;52.832;13.816;2023-05-23T16:24:50;101147.84;;;16.76;72.78
17764;BME280;22245;52.832;13.816;2023-05-23T16:28:16;101151.19;;;16.70;72.18
17764;BME280;22245;52.832;13.816;2023-05-23T16:31:39;101152.34;;;16.67;72.62
17764;BME280;22245;52.832;13.816;2023-05-23T16:35:01;101156.84;;;16.58;71.17
17764;BME280;22245;52.832;13.816;2023-05-23T16:38:23;101170.25;;;16.50;70.93
17764;BME280;22245;52.832;13.816;2023-05-23T16:41:44;101176.25;;;16.44;71.89
17764;BME280;22245;52.832;13.816;2023-05-23T16:45:06;101196.53;;;16.38;71.76
17764;BME280;22245;52.832;13.816;2023-05-23T16:48:29;101195.13;;;16.26;71.49
17764;BME280;22245;52.832;13.816;2023-05-23T16:51:51;101205.13;;;16.15;72.05
17764;BME280;22245;52.832;13.816;2023-05-23T16:55:13;101210.50;;;16.15;72.38
17764;BME280;22245;52.832;13.816;2023-05-23T16:58:34;101206.91;;;16.06;72.83
17764;BME280;22245;52.832;13.816;2023-05-23T17:01:59;101216.38;;;15.93;74.14
17764;BME280;22245;52.832;13.816;2023-05-23T17:05:22;101223.78;;;15.81;74.78
17764;BME280;22245;52.832;13.816;2023-05-23T17:08:44;101222.31;;;15.68;75.51
17764;BME280;22245;52.832;13.816;2023-05-23T17:12:06;101224.69;;;15.53;77.57
17764;BME280;22245;52.832;13.816;2023-05-23T17:15:28;101233.34;;;15.47;78.06
17764;BME280;22245;52.832;13.816;2023-05-23T17:18:50;101241.25;;;15.48;79.75
17764;BME280;22245;52.832;13.816;2023-05-23T17:22:13;101246.09;;;15.45;80.89
17764;BME280;22245;52.832;13.816;2023-05-23T17:25:35;101252.88;;;15.39;81.06
17764;BME280;22245;52.832;13.816;2023-05-23T17:28:56;101257.72;;;15.36;81.72
17764;BME280;22245;52.832;13.816;2023-05-23T17:32:18;101264.63;;;15.38;82.31
17764;BME280;22245;52.832;13.816;2023-05-23T17:35:40;101260.56;;;15.34;83.31